sensor_id;sensor_type;location;lat;lon;timestamp;P1;durP1;ratioP1;P2;durP2;ratioP2
16286;SDS011;8251;53.568;10.018;2023-02-19T00:02:06;3.57;;;2.40;;
16286;SDS011;8251;53.568;10.018;2023-02-19T00:04:34;8.70;;;3.10;;
16286;SDS011;8251;53.568;10.018;2023-02-19T00:07:05;18.27;;;2.83;;
16286;SDS011;8251;53.568;10.018;2023-02-19T00:09:33;3.47;;;2.40;;
16286;SDS011;8251;53.568;10.018;2023-02-19T00:12:01;6.17;;;2.60;;
16286;SDS011;8251;53.568;10.018;2023-02-19T00:14:32;6.40;;;2.40;;
16286;SDS011;8251;53.568;10.018;2023-02-19T00:17:00;4.87;;;2.57;;
16286;SDS011;8251;53.568;10.018;2023-02-19T00:19:43;6.40;;;2.87;;
16286;SDS011;8251;53.568;10.018;2023-02-19T00:22:14;3.03;;;2.17;;
16286;SDS011;8251;53.568;10.018;2023-02-19T00:24:44;7.00;;;2.57;;
16286;SDS011;8251;53.568;10.018;2023-02-19T00:27:15;6.70;;;3.13;;
16286;SDS011;8251;53.568;10.018;2023-02-19T00:29:44;5.63;;;2.70;;
16286;SDS011;8251;53.568;10.018;2023-02-19T00:32:12;4.83;;;2.10;;
16286;SDS011;8251;53.568;10.018;2023-02-19T00:34:39;6.03;;;2.40;;
16286;SDS011;8251;53.568;10.018;2023-02-19T00:37:11;3.97;;;1.97;;
16286;SDS011;8251;53.568;10.018;2023-02-19T00:39:39;5.23;;;2.17;;
16286;SDS011;8251;53.568;10.018;2023-02-19T00:42:08;3.77;;;2.60;;
16286;SDS011;8251;53.568;10.018;2023-02-19T00:44:36;5.70;;;2.43;;
16286;SDS011;8251;53.568;10.018;2023-02-19T00:47:05;3.83;;;2.20;;
16286;SDS011;8251;53.568;10.018;2023-02-19T00:49:36;3.77;;;2.13;;
16286;SDS011;8251;53.568;10.018;2023-02-19T00:52:10;5.00;;;2.80;;
16286;SDS011;8251;53.568;10.018;2023-02-19T00:54:38;3.43;;;2.37;;
16286;SDS011;8251;53.568;10.018;2023-02-19T00:57:05;4.23;;;2.40;;
16286;SDS011;8251;53.568;10.018;2023-02-19T00:59:35;4.23;;;2.27;;
16286;SDS011;8251;53.568;10.018;2023-02-19T01:02:04;6.47;;;2.10;;
16286;SDS011;8251;53.568;10.018;2023-02-19T01:04:35;4.20;;;2.07;;
16286;SDS011;8251;53.568;10.018;2023-02-19T01:07:05;9.43;;;2.87;;
16286;SDS011;8251;53.568;10.018;2023-02-19T01:09:35;5.27;;;2.67;;
16286;SDS011;8251;53.568;10.018;2023-02-19T01:12:05;3.50;;;1.90;;
16286;SDS011;8251;53.568;10.018;2023-02-19T01:14:37;6.87;;;2.53;;
16286;SDS011;8251;53.568;10.018;2023-02-19T01:17:06;5.13;;;2.30;;
16286;SDS011;8251;53.568;10.018;2023-02-19T01:19:34;3.30;;;2.10;;
16286;SDS011;8251;53.568;10.018;2023-02-19T01:22:03;4.00;;;1.77;;
16286;SDS011;8251;53.568;10.018;2023-02-19T01:24:30;9.00;;;2.60;;
16286;SDS011;8251;53.568;10.018;2023-02-19T01:27:01;15.10;;;2.90;;
16286;SDS011;8251;53.568;10.018;2023-02-19T01:29:34;10.90;;;2.37;;
16286;SDS011;8251;53.568;10.018;2023-02-19T01:32:02;5.23;;;3.13;;
16286;SDS011;8251;53.568;10.018;2023-02-19T01:34:29;8.97;;;3.30;;
16286;SDS011;8251;53.568;10.018;2023-02-19T01:36:59;11.07;;;3.43;;
16286;SDS011;8251;53.568;10.018;2023-02-19T01:39:32;7.07;;;2.63;;
16286;SDS011;8251;53.568;10.018;2023-02-19T01:42:01;5.20;;;1.60;;
16286;SDS011;8251;53.568;10.018;2023-02-19T01:48:00;1.83;;;1.50;;
16286;SDS011;8251;53.568;10.018;2023-02-19T01:50:36;7.80;;;2.20;;
16286;SDS011;8251;53.568;10.018;2023-02-19T01:53:08;2.33;;;1.60;;
16286;SDS011;8251;53.568;10.018;2023-02-19T01:55:41;9.90;;;2.30;;
16286;SDS011;8251;53.568;10.018;2023-02-19T01:58:13;5.73;;;2.53;;
16286;SDS011;8251;53.568;10.018;2023-02-19T02:00:41;5.33;;;2.50;;
16286;SDS011;8251;53.568;10.018;2023-02-19T02:03:13;6.50;;;1.77;;
16286;SDS011;8251;53.568;10.018;2023-02-19T02:05:43;6.03;;;1.90;;
16286;SDS011;8251;53.568;10.018;2023-02-19T02:08:18;3.27;;;1.60;;
16286;SDS011;8251;53.568;10.018;2023-02-19T02:11:04;1.87;;;1.47;;
16286;SDS011;8251;53.568;10.018;2023-02-19T02:13:34;2.80;;;1.90;;
16286;SDS011;8251;53.568;10.018;2023-02-19T02:16:07;4.53;;;1.60;;
16286;SDS011;8251;53.568;10.018;2023-02-19T02:18:49;4.60;;;1.53;;
16286;SDS011;8251;53.568;10.018;2023-02-19T02:21:32;4.17;;;1.93;;
16286;SDS011;8251;53.568;10.018;2023-02-19T02:24:22;5.47;;;1.80;;
16286;SDS011;8251;53.568;10.018;2023-02-19T02:27:09;5.73;;;2.17;;
16286;SDS011;8251;53.568;10.018;2023-02-19T02:30:04;2.70;;;2.00;;
16286;SDS011;8251;53.568;10.018;2023-02-19T02:32:48;3.63;;;1.80;;
16286;SDS011;8251;53.568;10.018;2023-02-19T02:35:33;4.47;;;1.60;;
16286;SDS011;8251;53.568;10.018;2023-02-19T02:38:07;5.80;;;1.50;;
16286;SDS011;8251;53.568;10.018;2023-02-19T02:40:36;5.23;;;1.77;;
16286;SDS011;8251;53.568;10.018;2023-02-19T02:43:10;5.40;;;1.53;;
16286;SDS011;8251;53.568;10.018;2023-02-19T02:45:40;4.53;;;1.50;;
16286;SDS011;8251;53.568;10.018;2023-02-19T02:48:15;2.77;;;1.23;;
16286;SDS011;8251;53.568;10.018;2023-02-19T02:50:55;5.80;;;1.30;;
16286;SDS011;8251;53.568;10.018;2023-02-19T02:53:34;5.70;;;1.10;;
16286;SDS011;8251;53.568;10.018;2023-02-19T02:56:23;1.87;;;1.00;;
16286;SDS011;8251;53.568;10.018;2023-02-19T02:58:54;4.97;;;1.23;;
16286;SDS011;8251;53.568;10.018;2023-02-19T03:01:34;6.07;;;0.93;;
16286;SDS011;8251;53.568;10.018;2023-02-19T03:04:32;3.47;;;1.10;;
16286;SDS011;8251;53.568;10.018;2023-02-19T03:07:25;4.43;;;1.30;;
16286;SDS011;8251;53.568;10.018;2023-02-19T03:10:03;2.87;;;1.20;;
16286;SDS011;8251;53.568;10.018;2023-02-19T03:12:36;4.97;;;1.20;;
16286;SDS011;8251;53.568;10.018;2023-02-19T03:15:24;1.73;;;1.40;;
16286;SDS011;8251;53.568;10.018;2023-02-19T03:18:15;5.07;;;1.60;;
16286;SDS011;8251;53.568;10.018;2023-02-19T03:21:06;3.93;;;1.30;;
16286;SDS011;8251;53.568;10.018;2023-02-19T03:23:35;8.27;;;1.63;;
16286;SDS011;8251;53.568;10.018;2023-02-19T03:26:22;6.23;;;2.00;;
16286;SDS011;8251;53.568;10.018;2023-02-19T03:28:52;3.93;;;1.50;;
16286;SDS011;8251;53.568;10.018;2023-02-19T03:31:39;3.10;;;1.60;;
16286;SDS011;8251;53.568;10.018;2023-02-19T03:34:16;3.00;;;1.33;;
16286;SDS011;8251;53.568;10.018;2023-02-19T03:36:50;2.93;;;1.37;;
16286;SDS011;8251;53.568;10.018;2023-02-19T03:39:24;3.67;;;2.00;;
16286;SDS011;8251;53.568;10.018;2023-02-19T03:41:56;10.77;;;2.40;;
16286;SDS011;8251;53.568;10.018;2023-02-19T03:44:39;9.03;;;1.93;;
16286;SDS011;8251;53.568;10.018;2023-02-19T03:47:13;2.27;;;1.60;;
16286;SDS011;8251;53.568;10.018;2023-02-19T03:49:48;1.50;;;1.13;;
16286;SDS011;8251;53.568;10.018;2023-02-19T03:52:22;4.93;;;1.70;;
16286;SDS011;8251;53.568;10.018;2023-02-19T03:55:06;7.57;;;1.87;;
16286;SDS011;8251;53.568;10.018;2023-02-19T03:57:38;4.80;;;1.67;;
16286;SDS011;8251;53.568;10.018;2023-02-19T04:00:19;2.70;;;1.17;;
16286;SDS011;8251;53.568;10.018;2023-02-19T04:02:52;2.97;;;1.20;;
16286;SDS011;8251;53.568;10.018;2023-02-19T04:05:34;1.77;;;1.30;;
16286;SDS011;8251;53.568;10.018;2023-02-19T04:08:10;2.50;;;1.33;;
16286;SDS011;8251;53.568;10.018;2023-02-19T04:10:40;2.80;;;1.57;;
16286;SDS011;8251;53.568;10.018;2023-02-19T04:13:13;2.97;;;1.50;;
16286;SDS011;8251;53.568;10.018;2023-02-19T04:15:53;4.20;;;1.37;;
16286;SDS011;8251;53.568;10.018;2023-02-19T04:18:23;4.57;;;2.20;;
16286;SDS011;8251;53.568;10.018;2023-02-19T04:21:02;1.40;;;1.10;;
16286;SDS011;8251;53.568;10.018;2023-02-19T04:23:35;1.83;;;1.20;;
16286;SDS011;8251;53.568;10.018;2023-02-19T04:26:08;4.03;;;1.30;;
16286;SDS011;8251;53.568;10.018;2023-02-19T04:28:42;8.03;;;1.40;;
16286;SDS011;8251;53.568;10.018;2023-02-19T04:31:11;5.30;;;1.80;;
16286;SDS011;8251;53.568;10.018;2023-02-19T04:33:39;2.67;;;1.60;;
16286;SDS011;8251;53.568;10.018;2023-02-19T04:36:09;4.20;;;1.20;;
16286;SDS011;8251;53.568;10.018;2023-02-19T04:38:37;2.33;;;1.10;;
16286;SDS011;8251;53.568;10.018;2023-02-19T04:41:05;3.90;;;1.30;;
16286;SDS011;8251;53.568;10.018;2023-02-19T04:43:34;8.27;;;1.67;;
16286;SDS011;8251;53.568;10.018;2023-02-19T04:46:01;3.13;;;1.47;;
16286;SDS011;8251;53.568;10.018;2023-02-19T04:48:31;2.33;;;1.30;;
16286;SDS011;8251;53.568;10.018;2023-02-19T04:51:03;5.83;;;1.53;;
16286;SDS011;8251;53.568;10.018;2023-02-19T04:53:36;2.33;;;1.50;;
16286;SDS011;8251;53.568;10.018;2023-02-19T04:56:07;1.97;;;1.50;;
16286;SDS011;8251;53.568;10.018;2023-02-19T04:58:36;5.87;;;1.60;;
16286;SDS011;8251;53.568;10.018;2023-02-19T05:01:04;8.73;;;1.93;;
16286;SDS011;8251;53.568;10.018;2023-02-19T05:03:33;5.87;;;1.90;;
16286;SDS011;8251;53.568;10.018;2023-02-19T05:06:04;6.63;;;1.60;;
16286;SDS011;8251;53.568;10.018;2023-02-19T05:08:39;3.63;;;1.40;;
16286;SDS011;8251;53.568;10.018;2023-02-19T05:11:11;3.70;;;1.30;;
16286;SDS011;8251;53.568;10.018;2023-02-19T05:13:44;3.93;;;1.83;;
16286;SDS011;8251;53.568;10.018;2023-02-19T05:16:15;3.67;;;0.97;;
16286;SDS011;8251;53.568;10.018;2023-02-19T05:18:44;2.87;;;0.90;;
16286;SDS011;8251;53.568;10.018;2023-02-19T05:21:14;4.53;;;1.33;;
16286;SDS011;8251;53.568;10.018;2023-02-19T05:23:47;9.53;;;1.00;;
16286;SDS011;8251;53.568;10.018;2023-02-19T05:26:16;1.50;;;0.97;;
16286;SDS011;8251;53.568;10.018;2023-02-19T05:28:47;5.73;;;1.50;;
16286;SDS011;8251;53.568;10.018;2023-02-19T05:31:18;6.63;;;1.17;;
16286;SDS011;8251;53.568;10.018;2023-02-19T05:33:53;4.30;;;1.40;;
16286;SDS011;8251;53.568;10.018;2023-02-19T05:36:26;3.77;;;0.93;;
16286;SDS011;8251;53.568;10.018;2023-02-19T05:39:00;2.13;;;0.90;;
16286;SDS011;8251;53.568;10.018;2023-02-19T05:41:31;8.97;;;1.20;;
16286;SDS011;8251;53.568;10.018;2023-02-19T05:44:01;3.90;;;2.07;;
16286;SDS011;8251;53.568;10.018;2023-02-19T05:46:30;3.27;;;0.90;;
16286;SDS011;8251;53.568;10.018;2023-02-19T05:48:57;1.63;;;0.83;;
16286;SDS011;8251;53.568;10.018;2023-02-19T05:51:27;4.53;;;1.33;;
16286;SDS011;8251;53.568;10.018;2023-02-19T05:54:00;5.27;;;1.30;;
16286;SDS011;8251;53.568;10.018;2023-02-19T05:56:32;7.23;;;1.23;;
16286;SDS011;8251;53.568;10.018;2023-02-19T05:59:03;2.57;;;0.93;;
16286;SDS011;8251;53.568;10.018;2023-02-19T06:01:41;11.80;;;1.50;;
16286;SDS011;8251;53.568;10.018;2023-02-19T06:04:10;9.00;;;1.50;;
16286;SDS011;8251;53.568;10.018;2023-02-19T06:06:43;2.67;;;1.00;;
16286;SDS011;8251;53.568;10.018;2023-02-19T06:09:11;7.97;;;2.00;;
16286;SDS011;8251;53.568;10.018;2023-02-19T06:11:42;4.30;;;1.13;;
16286;SDS011;8251;53.568;10.018;2023-02-19T06:14:10;5.20;;;1.33;;
16286;SDS011;8251;53.568;10.018;2023-02-19T06:16:39;3.40;;;1.03;;
16286;SDS011;8251;53.568;10.018;2023-02-19T06:19:10;3.50;;;0.90;;
16286;SDS011;8251;53.568;10.018;2023-02-19T06:21:37;1.40;;;0.87;;
16286;SDS011;8251;53.568;10.018;2023-02-19T06:24:06;2.37;;;1.00;;
16286;SDS011;8251;53.568;10.018;2023-02-19T06:26:38;8.20;;;1.53;;
16286;SDS011;8251;53.568;10.018;2023-02-19T06:29:08;6.13;;;1.27;;
16286;SDS011;8251;53.568;10.018;2023-02-19T06:31:45;4.20;;;1.83;;
16286;SDS011;8251;53.568;10.018;2023-02-19T06:34:15;5.27;;;1.00;;
16286;SDS011;8251;53.568;10.018;2023-02-19T06:36:46;4.83;;;1.30;;
16286;SDS011;8251;53.568;10.018;2023-02-19T06:39:15;4.43;;;1.10;;
16286;SDS011;8251;53.568;10.018;2023-02-19T06:41:47;1.90;;;0.93;;
16286;SDS011;8251;53.568;10.018;2023-02-19T06:44:18;2.17;;;0.80;;
16286;SDS011;8251;53.568;10.018;2023-02-19T06:46:48;6.80;;;1.40;;
16286;SDS011;8251;53.568;10.018;2023-02-19T06:49:16;5.27;;;1.10;;
16286;SDS011;8251;53.568;10.018;2023-02-19T06:51:44;1.40;;;1.20;;
16286;SDS011;8251;53.568;10.018;2023-02-19T06:54:15;3.27;;;1.40;;
16286;SDS011;8251;53.568;10.018;2023-02-19T06:56:43;6.90;;;1.20;;
16286;SDS011;8251;53.568;10.018;2023-02-19T06:59:13;6.47;;;1.70;;
16286;SDS011;8251;53.568;10.018;2023-02-19T07:01:45;4.70;;;1.23;;
16286;SDS011;8251;53.568;10.018;2023-02-19T07:04:15;4.83;;;1.30;;
16286;SDS011;8251;53.568;10.018;2023-02-19T07:06:43;5.37;;;1.37;;
16286;SDS011;8251;53.568;10.018;2023-02-19T07:09:13;4.93;;;1.30;;
16286;SDS011;8251;53.568;10.018;2023-02-19T07:11:43;3.50;;;1.37;;
16286;SDS011;8251;53.568;10.018;2023-02-19T07:14:17;5.97;;;1.50;;
16286;SDS011;8251;53.568;10.018;2023-02-19T07:16:45;4.50;;;1.47;;
16286;SDS011;8251;53.568;10.018;2023-02-19T07:19:19;5.30;;;1.60;;
16286;SDS011;8251;53.568;10.018;2023-02-19T07:21:46;4.17;;;1.90;;
16286;SDS011;8251;53.568;10.018;2023-02-19T07:24:16;10.33;;;3.00;;
16286;SDS011;8251;53.568;10.018;2023-02-19T07:26:46;3.33;;;1.50;;
16286;SDS011;8251;53.568;10.018;2023-02-19T07:29:15;6.43;;;1.77;;
16286;SDS011;8251;53.568;10.018;2023-02-19T07:31:44;3.97;;;1.60;;
16286;SDS011;8251;53.568;10.018;2023-02-19T07:34:11;4.17;;;1.90;;
16286;SDS011;8251;53.568;10.018;2023-02-19T07:36:45;4.27;;;1.97;;
16286;SDS011;8251;53.568;10.018;2023-02-19T07:39:16;8.90;;;2.50;;
16286;SDS011;8251;53.568;10.018;2023-02-19T07:41:44;9.43;;;1.93;;
16286;SDS011;8251;53.568;10.018;2023-02-19T07:44:15;4.53;;;1.73;;
16286;SDS011;8251;53.568;10.018;2023-02-19T07:46:44;8.33;;;2.13;;
16286;SDS011;8251;53.568;10.018;2023-02-19T07:49:24;4.77;;;2.23;;
16286;SDS011;8251;53.568;10.018;2023-02-19T07:51:51;7.50;;;2.13;;
16286;SDS011;8251;53.568;10.018;2023-02-19T07:54:35;7.07;;;1.80;;
16286;SDS011;8251;53.568;10.018;2023-02-19T07:57:05;6.23;;;2.03;;
16286;SDS011;8251;53.568;10.018;2023-02-19T07:59:46;7.53;;;2.30;;
16286;SDS011;8251;53.568;10.018;2023-02-19T08:02:14;4.97;;;1.50;;
16286;SDS011;8251;53.568;10.018;2023-02-19T08:05:02;3.63;;;1.83;;
16286;SDS011;8251;53.568;10.018;2023-02-19T08:07:34;7.03;;;1.77;;
16286;SDS011;8251;53.568;10.018;2023-02-19T08:10:02;1.53;;;1.10;;
16286;SDS011;8251;53.568;10.018;2023-02-19T08:12:55;7.57;;;1.87;;
16286;SDS011;8251;53.568;10.018;2023-02-19T08:15:43;2.70;;;1.47;;
16286;SDS011;8251;53.568;10.018;2023-02-19T08:18:14;4.80;;;2.03;;
16286;SDS011;8251;53.568;10.018;2023-02-19T08:20:42;5.20;;;1.80;;
16286;SDS011;8251;53.568;10.018;2023-02-19T08:23:12;4.60;;;1.97;;
16286;SDS011;8251;53.568;10.018;2023-02-19T08:25:41;7.83;;;1.87;;
16286;SDS011;8251;53.568;10.018;2023-02-19T08:28:12;3.77;;;1.30;;
16286;SDS011;8251;53.568;10.018;2023-02-19T08:30:46;1.57;;;1.33;;
16286;SDS011;8251;53.568;10.018;2023-02-19T08:33:14;1.77;;;1.17;;
16286;SDS011;8251;53.568;10.018;2023-02-19T08:35:50;3.53;;;1.30;;
16286;SDS011;8251;53.568;10.018;2023-02-19T08:38:17;8.13;;;1.30;;
16286;SDS011;8251;53.568;10.018;2023-02-19T08:40:46;2.70;;;1.20;;
16286;SDS011;8251;53.568;10.018;2023-02-19T08:43:15;3.70;;;1.20;;
16286;SDS011;8251;53.568;10.018;2023-02-19T08:45:44;5.33;;;1.27;;
16286;SDS011;8251;53.568;10.018;2023-02-19T08:48:12;2.57;;;1.20;;
16286;SDS011;8251;53.568;10.018;2023-02-19T08:50:41;5.73;;;1.20;;
16286;SDS011;8251;53.568;10.018;2023-02-19T08:53:10;5.50;;;1.97;;
16286;SDS011;8251;53.568;10.018;2023-02-19T08:55:39;8.27;;;1.27;;
16286;SDS011;8251;53.568;10.018;2023-02-19T08:58:09;3.17;;;1.60;;
16286;SDS011;8251;53.568;10.018;2023-02-19T09:00:36;4.37;;;1.27;;
16286;SDS011;8251;53.568;10.018;2023-02-19T09:03:12;3.17;;;1.30;;
16286;SDS011;8251;53.568;10.018;2023-02-19T09:05:41;2.73;;;1.10;;
16286;SDS011;8251;53.568;10.018;2023-02-19T09:08:10;3.60;;;1.20;;
16286;SDS011;8251;53.568;10.018;2023-02-19T09:10:43;3.03;;;0.87;;
16286;SDS011;8251;53.568;10.018;2023-02-19T09:13:11;6.53;;;1.27;;
16286;SDS011;8251;53.568;10.018;2023-02-19T09:15:38;2.97;;;0.90;;
16286;SDS011;8251;53.568;10.018;2023-02-19T09:18:06;3.70;;;0.90;;
16286;SDS011;8251;53.568;10.018;2023-02-19T09:20:34;6.23;;;1.17;;
16286;SDS011;8251;53.568;10.018;2023-02-19T09:23:01;3.50;;;1.10;;
16286;SDS011;8251;53.568;10.018;2023-02-19T09:25:28;1.57;;;0.90;;
16286;SDS011;8251;53.568;10.018;2023-02-19T09:27:55;3.93;;;1.60;;
16286;SDS011;8251;53.568;10.018;2023-02-19T09:30:24;2.57;;;1.17;;
16286;SDS011;8251;53.568;10.018;2023-02-19T09:32:51;2.63;;;1.10;;
16286;SDS011;8251;53.568;10.018;2023-02-19T09:35:20;5.40;;;0.70;;
16286;SDS011;8251;53.568;10.018;2023-02-19T09:37:54;2.60;;;1.03;;
16286;SDS011;8251;53.568;10.018;2023-02-19T09:40:24;3.03;;;0.80;;
16286;SDS011;8251;53.568;10.018;2023-02-19T09:42:52;5.90;;;1.33;;
16286;SDS011;8251;53.568;10.018;2023-02-19T09:45:20;4.53;;;0.90;;
16286;SDS011;8251;53.568;10.018;2023-02-19T09:47:52;6.83;;;2.33;;
16286;SDS011;8251;53.568;10.018;2023-02-19T09:50:21;2.90;;;0.80;;
16286;SDS011;8251;53.568;10.018;2023-02-19T09:53:02;2.43;;;0.87;;
16286;SDS011;8251;53.568;10.018;2023-02-19T09:55:40;1.10;;;0.60;;
16286;SDS011;8251;53.568;10.018;2023-02-19T09:58:17;3.97;;;1.10;;
16286;SDS011;8251;53.568;10.018;2023-02-19T10:00:51;2.70;;;1.00;;
16286;SDS011;8251;53.568;10.018;2023-02-19T10:03:21;2.10;;;0.73;;
16286;SDS011;8251;53.568;10.018;2023-02-19T10:05:55;2.87;;;0.90;;
16286;SDS011;8251;53.568;10.018;2023-02-19T10:08:29;5.97;;;1.40;;
16286;SDS011;8251;53.568;10.018;2023-02-19T10:11:03;3.23;;;0.97;;
16286;SDS011;8251;53.568;10.018;2023-02-19T10:13:33;4.13;;;0.77;;
16286;SDS011;8251;53.568;10.018;2023-02-19T10:16:05;1.87;;;0.87;;
16286;SDS011;8251;53.568;10.018;2023-02-19T10:18:41;2.53;;;1.30;;
16286;SDS011;8251;53.568;10.018;2023-02-19T10:21:13;4.30;;;1.30;;
16286;SDS011;8251;53.568;10.018;2023-02-19T10:23:47;3.33;;;0.80;;
16286;SDS011;8251;53.568;10.018;2023-02-19T10:26:17;3.73;;;0.73;;
16286;SDS011;8251;53.568;10.018;2023-02-19T10:28:47;2.73;;;0.70;;
16286;SDS011;8251;53.568;10.018;2023-02-19T10:31:15;2.80;;;0.87;;
16286;SDS011;8251;53.568;10.018;2023-02-19T10:33:50;3.23;;;0.60;;
16286;SDS011;8251;53.568;10.018;2023-02-19T10:36:23;3.10;;;0.70;;
16286;SDS011;8251;53.568;10.018;2023-02-19T10:38:55;2.13;;;1.33;;
16286;SDS011;8251;53.568;10.018;2023-02-19T10:41:26;2.80;;;1.27;;
16286;SDS011;8251;53.568;10.018;2023-02-19T10:43:54;4.13;;;0.60;;
16286;SDS011;8251;53.568;10.018;2023-02-19T10:46:31;7.23;;;0.70;;
16286;SDS011;8251;53.568;10.018;2023-02-19T10:49:02;2.97;;;0.53;;
16286;SDS011;8251;53.568;10.018;2023-02-19T10:51:32;3.43;;;0.83;;
16286;SDS011;8251;53.568;10.018;2023-02-19T10:54:08;4.13;;;0.60;;
16286;SDS011;8251;53.568;10.018;2023-02-19T10:56:47;3.83;;;1.20;;
16286;SDS011;8251;53.568;10.018;2023-02-19T10:59:21;2.37;;;0.90;;
16286;SDS011;8251;53.568;10.018;2023-02-19T11:01:53;2.67;;;0.77;;
16286;SDS011;8251;53.568;10.018;2023-02-19T11:04:23;8.03;;;1.37;;
16286;SDS011;8251;53.568;10.018;2023-02-19T11:07:02;2.57;;;0.70;;
16286;SDS011;8251;53.568;10.018;2023-02-19T11:09:40;3.10;;;0.80;;
16286;SDS011;8251;53.568;10.018;2023-02-19T11:12:10;3.40;;;1.70;;
16286;SDS011;8251;53.568;10.018;2023-02-19T11:14:40;1.87;;;0.30;;
16286;SDS011;8251;53.568;10.018;2023-02-19T11:17:16;0.93;;;0.50;;
16286;SDS011;8251;53.568;10.018;2023-02-19T11:19:50;3.13;;;0.60;;
16286;SDS011;8251;53.568;10.018;2023-02-19T11:22:27;0.73;;;0.60;;
16286;SDS011;8251;53.568;10.018;2023-02-19T11:25:05;8.00;;;1.77;;
16286;SDS011;8251;53.568;10.018;2023-02-19T11:27:52;2.97;;;1.37;;
16286;SDS011;8251;53.568;10.018;2023-02-19T11:30:31;2.20;;;0.60;;
16286;SDS011;8251;53.568;10.018;2023-02-19T11:33:23;2.50;;;0.80;;
16286;SDS011;8251;53.568;10.018;2023-02-19T11:39:03;1.20;;;0.50;;
16286;SDS011;8251;53.568;10.018;2023-02-19T11:41:54;5.60;;;0.50;;
16286;SDS011;8251;53.568;10.018;2023-02-19T11:44:45;0.90;;;0.50;;
16286;SDS011;8251;53.568;10.018;2023-02-19T11:50:38;3.50;;;0.50;;
16286;SDS011;8251;53.568;10.018;2023-02-19T11:53:20;2.07;;;0.70;;
16286;SDS011;8251;53.568;10.018;2023-02-19T11:56:09;3.10;;;0.90;;
16286;SDS011;8251;53.568;10.018;2023-02-19T11:58:55;4.57;;;0.70;;
16286;SDS011;8251;53.568;10.018;2023-02-19T12:01:32;2.83;;;0.97;;
16286;SDS011;8251;53.568;10.018;2023-02-19T12:04:32;0.40;;;0.40;;
16286;SDS011;8251;53.568;10.018;2023-02-19T12:07:34;1.93;;;0.60;;
16286;SDS011;8251;53.568;10.018;2023-02-19T12:10:20;0.70;;;0.53;;
16286;SDS011;8251;53.568;10.018;2023-02-19T12:12:58;0.40;;;0.40;;
16286;SDS011;8251;53.568;10.018;2023-02-19T12:15:41;1.93;;;0.70;;
16286;SDS011;8251;53.568;10.018;2023-02-19T12:18:27;1.07;;;0.70;;
16286;SDS011;8251;53.568;10.018;2023-02-19T12:21:10;0.93;;;0.70;;
16286;SDS011;8251;53.568;10.018;2023-02-19T12:23:54;1.20;;;0.90;;
16286;SDS011;8251;53.568;10.018;2023-02-19T12:26:45;1.73;;;1.10;;
16286;SDS011;8251;53.568;10.018;2023-02-19T12:29:30;3.27;;;0.80;;
16286;SDS011;8251;53.568;10.018;2023-02-19T12:32:11;4.37;;;0.83;;
16286;SDS011;8251;53.568;10.018;2023-02-19T12:35:04;0.83;;;0.63;;
16286;SDS011;8251;53.568;10.018;2023-02-19T12:37:55;1.90;;;0.60;;
16286;SDS011;8251;53.568;10.018;2023-02-19T12:40:33;0.83;;;0.60;;
16286;SDS011;8251;53.568;10.018;2023-02-19T12:43:14;2.27;;;0.60;;
16286;SDS011;8251;53.568;10.018;2023-02-19T12:45:45;1.23;;;1.00;;
16286;SDS011;8251;53.568;10.018;2023-02-19T12:48:19;1.70;;;0.70;;
16286;SDS011;8251;53.568;10.018;2023-02-19T12:50:58;1.03;;;0.53;;
16286;SDS011;8251;53.568;10.018;2023-02-19T12:53:32;1.73;;;0.57;;
16286;SDS011;8251;53.568;10.018;2023-02-19T12:56:08;2.10;;;0.50;;
16286;SDS011;8251;53.568;10.018;2023-02-19T12:58:41;3.40;;;0.60;;
16286;SDS011;8251;53.568;10.018;2023-02-19T13:01:14;5.07;;;0.73;;
16286;SDS011;8251;53.568;10.018;2023-02-19T13:03:50;0.83;;;0.63;;
16286;SDS011;8251;53.568;10.018;2023-02-19T13:06:31;1.67;;;0.73;;
16286;SDS011;8251;53.568;10.018;2023-02-19T13:09:02;3.70;;;0.70;;
16286;SDS011;8251;53.568;10.018;2023-02-19T13:11:38;1.30;;;0.80;;
16286;SDS011;8251;53.568;10.018;2023-02-19T13:14:12;1.90;;;0.50;;
16286;SDS011;8251;53.568;10.018;2023-02-19T13:16:53;1.10;;;0.50;;
16286;SDS011;8251;53.568;10.018;2023-02-19T13:19:25;6.33;;;0.83;;
16286;SDS011;8251;53.568;10.018;2023-02-19T13:21:55;1.27;;;0.77;;
16286;SDS011;8251;53.568;10.018;2023-02-19T13:24:49;4.43;;;1.00;;
16286;SDS011;8251;53.568;10.018;2023-02-19T13:27:35;3.60;;;1.07;;
16286;SDS011;8251;53.568;10.018;2023-02-19T13:30:29;7.07;;;1.63;;
16286;SDS011;8251;53.568;10.018;2023-02-19T13:33:11;2.87;;;0.80;;
16286;SDS011;8251;53.568;10.018;2023-02-19T13:35:57;2.63;;;0.80;;
16286;SDS011;8251;53.568;10.018;2023-02-19T13:38:31;4.50;;;1.10;;
16286;SDS011;8251;53.568;10.018;2023-02-19T13:41:16;1.87;;;0.80;;
16286;SDS011;8251;53.568;10.018;2023-02-19T13:43:55;6.30;;;1.67;;
16286;SDS011;8251;53.568;10.018;2023-02-19T13:46:25;1.40;;;0.67;;
16286;SDS011;8251;53.568;10.018;2023-02-19T13:51:56;4.90;;;0.87;;
16286;SDS011;8251;53.568;10.018;2023-02-19T13:54:26;1.90;;;0.70;;
16286;SDS011;8251;53.568;10.018;2023-02-19T13:59:53;3.90;;;0.90;;
16286;SDS011;8251;53.568;10.018;2023-02-19T14:02:25;1.13;;;0.60;;
16286;SDS011;8251;53.568;10.018;2023-02-19T14:04:58;1.97;;;0.53;;
16286;SDS011;8251;53.568;10.018;2023-02-19T14:07:46;3.57;;;0.50;;
16286;SDS011;8251;53.568;10.018;2023-02-19T14:16:27;1.83;;;0.57;;
16286;SDS011;8251;53.568;10.018;2023-02-19T14:18:57;1.33;;;0.40;;
16286;SDS011;8251;53.568;10.018;2023-02-19T14:21:33;4.10;;;1.33;;
16286;SDS011;8251;53.568;10.018;2023-02-19T14:24:08;1.70;;;0.53;;
16286;SDS011;8251;53.568;10.018;2023-02-19T14:26:39;2.70;;;1.10;;
16286;SDS011;8251;53.568;10.018;2023-02-19T14:29:10;2.50;;;0.70;;
16286;SDS011;8251;53.568;10.018;2023-02-19T14:31:41;5.67;;;0.67;;
16286;SDS011;8251;53.568;10.018;2023-02-19T14:34:12;1.37;;;0.73;;
16286;SDS011;8251;53.568;10.018;2023-02-19T14:36:46;2.67;;;0.77;;
16286;SDS011;8251;53.568;10.018;2023-02-19T14:39:21;0.37;;;0.37;;
16286;SDS011;8251;53.568;10.018;2023-02-19T14:41:56;0.80;;;0.60;;
16286;SDS011;8251;53.568;10.018;2023-02-19T14:44:26;3.93;;;0.50;;
16286;SDS011;8251;53.568;10.018;2023-02-19T14:46:57;10.40;;;0.50;;
16286;SDS011;8251;53.568;10.018;2023-02-19T14:49:28;4.07;;;1.03;;
16286;SDS011;8251;53.568;10.018;2023-02-19T14:52:04;1.53;;;0.80;;
16286;SDS011;8251;53.568;10.018;2023-02-19T14:54:38;3.93;;;0.90;;
16286;SDS011;8251;53.568;10.018;2023-02-19T14:57:11;2.07;;;0.63;;
16286;SDS011;8251;53.568;10.018;2023-02-19T14:59:50;1.50;;;0.70;;
16286;SDS011;8251;53.568;10.018;2023-02-19T15:02:19;1.33;;;1.00;;
16286;SDS011;8251;53.568;10.018;2023-02-19T15:04:48;0.43;;;0.43;;
16286;SDS011;8251;53.568;10.018;2023-02-19T15:07:16;1.43;;;0.57;;
16286;SDS011;8251;53.568;10.018;2023-02-19T15:09:50;1.00;;;0.50;;
16286;SDS011;8251;53.568;10.018;2023-02-19T15:12:31;5.67;;;0.80;;
16286;SDS011;8251;53.568;10.018;2023-02-19T15:15:16;3.07;;;0.70;;
16286;SDS011;8251;53.568;10.018;2023-02-19T15:17:49;1.93;;;0.50;;
16286;SDS011;8251;53.568;10.018;2023-02-19T15:20:19;1.30;;;0.80;;
16286;SDS011;8251;53.568;10.018;2023-02-19T15:22:49;3.03;;;0.80;;
16286;SDS011;8251;53.568;10.018;2023-02-19T15:25:23;2.93;;;1.10;;
16286;SDS011;8251;53.568;10.018;2023-02-19T15:28:00;1.27;;;0.60;;
16286;SDS011;8251;53.568;10.018;2023-02-19T15:30:46;4.03;;;0.83;;
16286;SDS011;8251;53.568;10.018;2023-02-19T15:33:15;4.10;;;0.80;;
16286;SDS011;8251;53.568;10.018;2023-02-19T15:35:46;1.00;;;0.70;;
16286;SDS011;8251;53.568;10.018;2023-02-19T15:38:14;1.27;;;0.70;;
16286;SDS011;8251;53.568;10.018;2023-02-19T15:40:44;2.23;;;0.93;;
16286;SDS011;8251;53.568;10.018;2023-02-19T15:43:16;3.23;;;0.67;;
16286;SDS011;8251;53.568;10.018;2023-02-19T15:45:49;4.13;;;0.80;;
16286;SDS011;8251;53.568;10.018;2023-02-19T15:48:21;5.33;;;0.70;;
16286;SDS011;8251;53.568;10.018;2023-02-19T15:50:54;8.77;;;0.97;;